Time;durP1;ratioP1;P1;durP2;ratioP2;P2;SDS_P1;SDS_P2;PMS_P1;PMS_P2;Temp;Humidity;BMP_temperature;BMP_pressure;BME280_temperature;BME280_humidity;BME280_pressure;Samples;Min_cycle;Max_cycle;Signal;HPM_P1;HPM_P2
2023/08/28 00:00:33;;;;;;;1.35;1.08;;;16.50;99.90;;;;;;4968145;28;20043;-85
2023/08/28 00:02:58;;;;;;;6.15;1.50;;;16.60;99.90;;;;;;4953984;29;20396;-85
2023/08/28 00:05:24;;;;;;;3.17;1.23;;;16.60;99.90;;;;;;4962990;28;20113;-84
2023/08/28 00:07:50;;;;;;;3.45;1.40;;;16.70;99.90;;;;;;4961897;28;20471;-84
2023/08/28 00:10:15;;;;;;;2.17;1.20;;;16.60;99.90;;;;;;4958042;28;20446;-84
2023/08/28 00:12:42;;;;;;;2.10;1.30;;;16.60;99.90;;;;;;4962205;28;20372;-84
2023/08/28 00:15:08;;;;;;;6.88;1.83;;;16.70;99.90;;;;;;4954711;28;20031;-84
2023/08/28 00:17:34;;;;;;;5.72;1.30;;;16.60;99.90;;;;;;4961061;28;20448;-84
2023/08/28 00:19:59;;;;;;;2.25;1.23;;;17.50;99.90;;;;;;4958819;28;20149;-83
2023/08/28 00:22:25;;;;;;;2.03;1.10;;;16.70;99.90;;;;;;4961782;28;20114;-85
2023/08/28 00:24:51;;;;;;;4.38;2.00;;;16.70;99.90;;;;;;4965342;28;20372;-85
2023/08/28 00:27:16;;;;;;;3.65;1.83;;;16.70;99.90;;;;;;4956498;28;20066;-83
2023/08/28 00:29:42;;;;;;;1.52;1.42;;;16.70;99.90;;;;;;4967415;28;20137;-85
2023/08/28 00:32:07;;;;;;;1.90;1.48;;;16.70;99.90;;;;;;4959515;28;20027;-84
2023/08/28 00:34:33;;;;;;;5.82;1.42;;;16.60;99.90;;;;;;4960408;28;20436;-85
2023/08/28 00:36:58;;;;;;;2.50;1.58;;;16.60;99.90;;;;;;4964363;28;20031;-84
2023/08/28 00:39:24;;;;;;;4.55;1.52;;;16.50;99.90;;;;;;4969182;28;20117;-84
2023/08/28 00:41:51;;;;;;;2.42;1.35;;;16.50;99.90;;;;;;4970484;28;20565;-84
2023/08/28 00:44:16;;;;;;;4.40;1.73;;;16.30;99.90;;;;;;4968359;28;20035;-84
2023/08/28 00:46:42;;;;;;;2.55;1.20;;;16.90;99.90;;;;;;4963884;28;20026;-84
2023/08/28 00:49:08;;;;;;;4.45;2.08;;;16.40;99.90;;;;;;4962693;28;20057;-83
2023/08/28 00:51:34;;;;;;;2.25;1.45;;;16.40;99.90;;;;;;4965378;28;20457;-84
2023/08/28 00:54:01;;;;;;;2.25;1.42;;;16.50;99.90;;;;;;4961757;28;20039;-84
2023/08/28 00:56:27;;;;;;;2.80;1.70;;;16.50;99.90;;;;;;4965068;28;20031;-84
2023/08/28 00:58:52;;;;;;;3.17;1.88;;;16.40;99.90;;;;;;4960369;28;20034;-84
2023/08/28 01:01:18;;;;;;;4.32;1.30;;;16.40;99.90;;;;;;4960630;28;20499;-84
2023/08/28 01:03:43;;;;;;;9.98;2.25;;;16.40;99.90;;;;;;4968056;28;20460;-84
2023/08/28 01:06:18;;;;;;;3.67;1.67;;;16.40;99.90;;;;;;4960275;28;20035;-84
2023/08/28 01:08:53;;;;;;;5.82;1.90;;;16.30;99.90;;;;;;4961573;28;20026;-85
2023/08/28 01:11:24;;;;;;;3.72;2.00;;;16.30;99.90;;;;;;4963624;28;20113;-84
2023/08/28 01:14:17;;;;;;;4.28;2.05;;;16.30;99.90;;;;;;4969457;28;20114;-84
2023/08/28 01:16:45;;;;;;;2.20;1.83;;;16.30;99.90;;;;;;4959297;28;20109;-84
2023/08/28 01:19:31;;;;;;;4.32;2.13;;;16.40;99.90;;;;;;4959652;28;20039;-84
2023/08/28 01:22:25;;;;;;;7.00;1.98;;;16.30;99.90;;;;;;4966157;28;20376;-84
2023/08/28 01:24:53;;;;;;;2.90;1.50;;;16.30;99.90;;;;;;4960437;28;20069;-84
2023/08/28 01:27:21;;;;;;;5.93;1.83;;;16.30;99.90;;;;;;4963790;28;20035;-84
2023/08/28 01:30:07;;;;;;;4.53;1.30;;;16.30;99.90;;;;;;4971644;28;20023;-84
2023/08/28 01:32:32;;;;;;;4.05;1.83;;;16.30;99.90;;;;;;4960265;28;20027;-84
2023/08/28 01:35:00;;;;;;;3.60;1.75;;;16.40;99.90;;;;;;4964262;28;20467;-85
2023/08/28 01:37:30;;;;;;;3.05;1.40;;;16.30;99.90;;;;;;4967967;28;20054;-84
2023/08/28 01:40:00;;;;;;;5.18;1.60;;;16.30;99.90;;;;;;4955646;28;20035;-84
2023/08/28 01:42:26;;;;;;;4.35;1.80;;;16.40;99.90;;;;;;4958488;28;20126;-84
2023/08/28 01:44:54;;;;;;;4.95;2.08;;;16.40;99.90;;;;;;4958000;28;20063;-84
2023/08/28 01:47:22;;;;;;;2.97;1.70;;;16.40;99.90;;;;;;4970549;28;20070;-84
2023/08/28 01:49:51;;;;;;;3.63;1.55;;;16.40;99.90;;;;;;4969551;28;20562;-84
2023/08/28 01:52:17;;;;;;;4.05;2.10;;;16.40;99.90;;;;;;4962546;28;20023;-85
2023/08/28 01:54:43;;;;;;;5.88;1.83;;;16.40;99.90;;;;;;4966414;28;20039;-85
2023/08/28 01:57:08;;;;;;;3.63;1.80;;;16.30;99.90;;;;;;4960481;28;20431;-84
2023/08/28 01:59:34;;;;;;;7.22;2.15;;;16.40;99.90;;;;;;4958531;28;20376;-84
2023/08/28 02:01:59;;;;;;;4.32;1.77;;;16.30;99.90;;;;;;4970428;28;20027;-85
2023/08/28 02:04:25;;;;;;;9.13;2.28;;;16.30;99.90;;;;;;4960950;28;20031;-84
2023/08/28 02:06:51;;;;;;;3.50;1.50;;;16.20;99.90;;;;;;4969422;28;20522;-84
2023/08/28 02:09:16;;;;;;;3.63;1.50;;;16.20;99.90;;;;;;4963316;28;20463;-84
2023/08/28 02:11:42;;;;;;;2.88;1.55;;;16.20;99.90;;;;;;4960264;28;20083;-90
2023/08/28 02:14:07;;;;;;;5.10;1.88;;;16.20;99.90;;;;;;4966238;28;20142;-83
2023/08/28 02:16:34;;;;;;;9.63;2.40;;;16.20;99.90;;;;;;4963922;28;20019;-85
2023/08/28 02:19:00;;;;;;;1.52;1.42;;;16.40;99.90;;;;;;4961722;28;20035;-85
2023/08/28 02:21:25;;;;;;;2.63;1.67;;;16.20;99.90;;;;;;4956707;28;20046;-85
2023/08/28 02:23:51;;;;;;;3.45;2.08;;;16.20;99.90;;;;;;4961914;28;20133;-86
2023/08/28 02:26:16;;;;;;;8.43;2.10;;;16.20;99.90;;;;;;4955812;28;20031;-85
2023/08/28 02:28:42;;;;;;;4.28;2.22;;;16.30;99.90;;;;;;4967597;28;20023;-84
2023/08/28 02:31:08;;;;;;;4.93;2.00;;;16.20;99.90;;;;;;4952530;29;20031;-85
2023/08/28 02:33:33;;;;;;;2.70;2.15;;;16.20;99.90;;;;;;4958406;28;20031;-83
2023/08/28 02:36:01;;;;;;;4.18;1.88;;;16.20;99.90;;;;;;4961915;28;20390;-84
2023/08/28 02:38:27;;;;;;;2.63;2.03;;;16.20;99.90;;;;;;4959072;28;20487;-84
2023/08/28 02:40:52;;;;;;;2.13;1.98;;;16.10;99.90;;;;;;4961468;28;20031;-85
2023/08/28 02:43:18;;;;;;;1.95;1.85;;;16.10;99.90;;;;;;4964407;28;20038;-85
2023/08/28 02:45:43;;;;;;;2.10;1.63;;;16.10;99.90;;;;;;4958433;28;20027;-85
2023/08/28 02:48:09;;;;;;;3.63;2.25;;;16.10;99.90;;;;;;4962879;28;20379;-84
2023/08/28 02:50:35;;;;;;;3.60;1.95;;;16.10;99.90;;;;;;4955215;28;20042;-84
2023/08/28 02:53:01;;;;;;;3.55;1.73;;;16.20;99.90;;;;;;4970530;28;20031;-84
2023/08/28 02:55:26;;;;;;;3.45;1.33;;;15.90;99.90;;;;;;4962991;28;20439;-85
2023/08/28 02:57:52;;;;;;;5.35;2.35;;;15.90;99.90;;;;;;4964282;28;20427;-85
2023/08/28 03:00:18;;;;;;;1.85;1.60;;;15.90;99.90;;;;;;4971062;28;20041;-85
2023/08/28 03:02:45;;;;;;;3.90;1.90;;;15.90;99.90;;;;;;4957049;28;20031;-85
2023/08/28 03:05:12;;;;;;;2.75;2.10;;;15.90;99.90;;;;;;4965102;28;20026;-83
2023/08/28 03:07:38;;;;;;;5.03;2.08;;;15.90;99.90;;;;;;4969835;28;20033;-85
2023/08/28 03:10:04;;;;;;;2.67;2.10;;;15.90;99.90;;;;;;4958811;28;20086;-84
2023/08/28 03:12:30;;;;;;;3.20;2.38;;;16.00;99.90;;;;;;4958077;28;20026;-85
2023/08/28 03:14:56;;;;;;;3.33;2.30;;;16.00;99.90;;;;;;4972549;28;20367;-84
2023/08/28 03:17:22;;;;;;;2.75;2.10;;;15.90;99.90;;;;;;4960941;28;20396;-84
2023/08/28 03:19:48;;;;;;;4.47;2.15;;;16.00;99.90;;;;;;4963243;28;20039;-84
2023/08/28 03:22:13;;;;;;;2.47;2.22;;;16.00;99.90;;;;;;4963749;28;20043;-84
2023/08/28 03:24:39;;;;;;;2.22;2.00;;;16.00;99.90;;;;;;4966729;28;20065;-84
2023/08/28 03:27:04;;;;;;;4.28;2.92;;;16.20;99.90;;;;;;4971495;28;20089;-84
2023/08/28 03:29:30;;;;;;;1.95;1.73;;;16.00;99.90;;;;;;4965040;28;20383;-84
2023/08/28 03:31:56;;;;;;;4.15;2.50;;;16.00;99.90;;;;;;4960370;28;20055;-85
2023/08/28 03:34:21;;;;;;;6.70;2.40;;;16.10;99.90;;;;;;4957073;28;20024;-84
2023/08/28 03:36:47;;;;;;;4.05;2.17;;;16.10;99.90;;;;;;4964065;28;20068;-85
2023/08/28 03:39:13;;;;;;;4.10;2.15;;;16.10;99.90;;;;;;4966667;28;20090;-85
2023/08/28 03:41:38;;;;;;;1.67;1.58;;;16.10;99.90;;;;;;4972473;28;20085;-85
2023/08/28 03:44:04;;;;;;;6.03;1.83;;;16.10;99.90;;;;;;4961815;28;20093;-84
2023/08/28 03:46:29;;;;;;;2.53;1.90;;;16.10;99.90;;;;;;4957269;28;20122;-84
2023/08/28 03:48:55;;;;;;;3.17;2.50;;;16.10;99.90;;;;;;4972602;28;20133;-85
2023/08/28 03:51:21;;;;;;;4.10;2.53;;;16.10;99.90;;;;;;4974449;28;20019;-85
2023/08/28 03:53:46;;;;;;;3.28;1.85;;;16.10;99.90;;;;;;4959089;28;20037;-85
2023/08/28 03:56:12;;;;;;;6.53;2.38;;;16.00;99.90;;;;;;4961857;28;20038;-84
2023/08/28 03:58:37;;;;;;;3.03;2.20;;;16.10;99.90;;;;;;4960337;28;20039;-84
2023/08/28 04:01:04;;;;;;;2.63;2.53;;;16.00;99.90;;;;;;4967228;28;20480;-84
2023/08/28 04:03:29;;;;;;;4.13;2.33;;;16.10;99.90;;;;;;4969723;28;20030;-85
2023/08/28 04:05:58;;;;;;;2.65;2.45;;;16.10;99.90;;;;;;4956695;28;20114;-84
2023/08/28 04:08:25;;;;;;;6.25;2.60;;;16.10;99.90;;;;;;4966711;28;20051;-85
2023/08/28 04:10:52;;;;;;;3.33;2.55;;;16.10;99.90;;;;;;4963684;28;20542;-83
2023/08/28 04:13:17;;;;;;;6.05;2.53;;;16.10;99.90;;;;;;4967734;28;20039;-84
2023/08/28 04:15:43;;;;;;;2.55;2.38;;;16.10;99.90;;;;;;4960158;28;20034;-84
2023/08/28 04:18:09;;;;;;;3.17;2.45;;;16.10;99.90;;;;;;4972247;28;20423;-85
2023/08/28 04:20:34;;;;;;;3.38;2.45;;;16.10;99.90;;;;;;4971366;28;20491;-84
2023/08/28 04:23:00;;;;;;;5.07;2.67;;;16.10;99.90;;;;;;4960549;28;20410;-85
2023/08/28 04:25:29;;;;;;;3.72;2.83;;;17.00;99.90;;;;;;4963785;28;20035;-85
2023/08/28 04:27:55;;;;;;;4.43;2.60;;;16.20;99.90;;;;;;4973410;28;20030;-85
2023/08/28 04:30:20;;;;;;;3.83;2.72;;;16.10;99.90;;;;;;4967073;28;20038;-83
2023/08/28 04:32:46;;;;;;;4.78;2.80;;;16.10;99.90;;;;;;4968017;28;20096;-86
2023/08/28 04:35:11;;;;;;;1.25;1.10;;;16.10;99.90;;;;;;4960067;28;20116;-85
2023/08/28 04:37:38;;;;;;;3.08;2.10;;;16.10;99.90;;;;;;4968624;28;20063;-84
2023/08/28 04:40:04;;;;;;;3.90;2.17;;;17.00;99.90;;;;;;4957612;28;20664;-85
2023/08/28 04:42:30;;;;;;;2.90;2.28;;;16.20;99.90;;;;;;4958635;28;20030;-85
2023/08/28 04:44:55;;;;;;;3.10;2.78;;;16.20;99.90;;;;;;4970155;28;20053;-85
2023/08/28 04:47:22;;;;;;;3.05;2.47;;;16.10;99.90;;;;;;4963776;28;20023;-84
2023/08/28 04:49:48;;;;;;;2.70;2.17;;;16.20;99.90;;;;;;4971363;28;20155;-84
2023/08/28 04:52:13;;;;;;;3.88;2.53;;;16.20;99.90;;;;;;4972181;28;22037;-84
2023/08/28 04:54:39;;;;;;;2.63;1.67;;;16.20;99.90;;;;;;4957006;28;20046;-85
2023/08/28 04:57:05;;;;;;;5.68;2.63;;;16.20;99.90;;;;;;4963667;28;20118;-83
2023/08/28 04:59:30;;;;;;;2.50;2.00;;;16.20;99.90;;;;;;4960330;28;20041;-83
2023/08/28 05:01:56;;;;;;;1.55;1.45;;;16.20;99.90;;;;;;4966390;28;20498;-85
2023/08/28 05:04:21;;;;;;;2.78;1.50;;;16.20;99.90;;;;;;4957275;28;20038;-85
2023/08/28 05:06:47;;;;;;;1.63;1.25;;;16.20;99.90;;;;;;4961344;28;20102;-85
2023/08/28 05:09:13;;;;;;;2.85;1.63;;;16.20;99.90;;;;;;4966481;28;20046;-85
2023/08/28 05:11:38;;;;;;;3.45;1.50;;;17.20;99.90;;;;;;4968506;28;20463;-85
2023/08/28 05:14:04;;;;;;;2.35;1.92;;;16.20;99.90;;;;;;4968589;28;20354;-84
2023/08/28 05:16:30;;;;;;;2.17;1.30;;;16.30;99.90;;;;;;4967635;28;20419;-85
2023/08/28 05:18:55;;;;;;;1.95;1.38;;;16.30;99.90;;;;;;4953221;29;20043;-85
2023/08/28 05:21:21;;;;;;;2.70;1.35;;;16.30;99.90;;;;;;4963333;28;20375;-85
2023/08/28 05:23:46;;;;;;;1.50;1.15;;;16.40;99.90;;;;;;4964802;28;20050;-85
2023/08/28 05:26:12;;;;;;;1.20;1.10;;;16.40;99.90;;;;;;4962461;28;20039;-85
2023/08/28 05:28:38;;;;;;;2.78;1.45;;;16.40;99.90;;;;;;4960128;28;20479;-85
2023/08/28 05:31:04;;;;;;;1.70;1.58;;;16.40;99.90;;;;;;4962771;28;20546;-85
2023/08/28 05:33:31;;;;;;;1.92;1.70;;;16.40;99.90;;;;;;4970657;28;20042;-85
2023/08/28 05:35:56;;;;;;;3.70;2.33;;;16.40;99.90;;;;;;4955094;28;20034;-85
2023/08/28 05:38:22;;;;;;;2.53;2.17;;;16.50;99.90;;;;;;4961530;28;20031;-85
2023/08/28 05:40:47;;;;;;;5.38;2.97;;;16.40;99.90;;;;;;4971537;28;20039;-85
2023/08/28 05:43:14;;;;;;;10.10;4.38;;;16.40;99.90;;;;;;4959631;28;20387;-85
2023/08/28 05:45:40;;;;;;;7.15;4.00;;;16.40;99.90;;;;;;4970947;28;20037;-85
2023/08/28 05:48:06;;;;;;;4.90;4.50;;;16.40;99.90;;;;;;4965691;28;20119;-85
2023/08/28 05:50:31;;;;;;;4.82;3.97;;;16.40;99.90;;;;;;4958734;28;20126;-84
2023/08/28 05:52:57;;;;;;;6.40;4.32;;;16.40;99.90;;;;;;4966240;28;20054;-85
2023/08/28 05:55:22;;;;;;;8.75;4.90;;;16.40;99.90;;;;;;4956419;28;20015;-85
2023/08/28 05:57:48;;;;;;;5.47;4.75;;;16.80;99.90;;;;;;4971528;28;20398;-85
2023/08/28 06:00:14;;;;;;;6.15;4.47;;;16.50;99.90;;;;;;4965218;28;20039;-85
2023/08/28 06:02:40;;;;;;;6.72;5.50;;;16.50;99.90;;;;;;4965962;28;20039;-86
2023/08/28 06:05:07;;;;;;;4.85;4.43;;;16.40;99.90;;;;;;4963173;28;20058;-85
2023/08/28 06:07:33;;;;;;;5.45;4.95;;;16.50;99.90;;;;;;4954354;28;20051;-85
2023/08/28 06:09:59;;;;;;;5.75;4.90;;;16.50;99.90;;;;;;4967195;28;20410;-85
2023/08/28 06:12:24;;;;;;;4.72;4.32;;;16.50;99.90;;;;;;4955383;28;20026;-85
2023/08/28 06:14:50;;;;;;;9.05;5.25;;;16.50;99.90;;;;;;4956426;28;20031;-85
2023/08/28 06:17:16;;;;;;;5.85;4.22;;;17.30;99.90;;;;;;4962795;28;20114;-85
2023/08/28 06:19:41;;;;;;;10.88;5.70;;;16.60;99.90;;;;;;4959155;28;20035;-86
2023/08/28 06:22:07;;;;;;;5.75;4.97;;;16.60;99.90;;;;;;4966344;28;20031;-84
2023/08/28 06:24:33;;;;;;;5.28;3.80;;;16.60;99.90;;;;;;4939549;29;20059;-85
2023/08/28 06:26:59;;;;;;;4.90;4.45;;;16.70;99.90;;;;;;4933483;29;20110;-85
2023/08/28 06:29:25;;;;;;;5.93;3.88;;;16.70;99.90;;;;;;4932626;29;20111;-84
2023/08/28 06:31:51;;;;;;;6.22;3.75;;;16.70;99.90;;;;;;4949285;29;20455;-85
2023/08/28 06:34:17;;;;;;;4.70;4.30;;;16.80;99.90;;;;;;4952388;28;20027;-84
2023/08/28 06:36:43;;;;;;;4.13;3.83;;;16.80;99.90;;;;;;4950660;29;20019;-85
2023/08/28 06:39:08;;;;;;;6.22;4.78;;;16.80;99.90;;;;;;4955036;29;20499;-85
2023/08/28 06:41:34;;;;;;;5.10;4.70;;;16.90;99.90;;;;;;4955940;29;20451;-89
2023/08/28 06:44:00;;;;;;;5.30;3.80;;;17.30;99.90;;;;;;4951792;29;20036;-90
2023/08/28 06:46:26;;;;;;;5.55;5.00;;;16.20;99.90;;;;;;4955151;29;20035;-89
2023/08/28 06:48:54;;;;;;;4.43;4.07;;;17.00;99.90;;;;;;4957121;29;20031;-91
2023/08/28 06:51:20;;;;;;;5.13;4.40;;;16.90;99.90;;;;;;4939301;29;20036;-90
2023/08/28 06:53:49;;;;;;;5.90;4.53;;;17.70;99.90;;;;;;4937301;29;20384;-89
2023/08/28 06:56:15;;;;;;;5.10;4.38;;;17.00;99.90;;;;;;4936185;29;20024;-90
2023/08/28 06:58:40;;;;;;;5.00;4.60;;;17.00;99.90;;;;;;4940768;29;20090;-87
2023/08/28 07:01:06;;;;;;;4.47;4.07;;;18.00;99.90;;;;;;4956206;29;20027;-90
2023/08/28 07:03:32;;;;;;;4.13;3.83;;;17.10;99.90;;;;;;4954388;29;20027;-91
2023/08/28 07:05:57;;;;;;;4.57;4.13;;;17.10;99.90;;;;;;4955054;29;20037;-88
2023/08/28 07:08:23;;;;;;;5.35;3.65;;;18.10;99.90;;;;;;4941744;29;20494;-86
2023/08/28 07:10:49;;;;;;;4.00;3.60;;;17.10;99.90;;;;;;4942781;29;20030;-85
2023/08/28 07:13:14;;;;;;;3.80;3.10;;;17.20;99.90;;;;;;4935511;29;20095;-87
2023/08/28 07:15:40;;;;;;;4.05;3.03;;;17.70;99.90;;;;;;4935431;29;20031;-86
2023/08/28 07:18:06;;;;;;;5.03;2.95;;;18.20;99.90;;;;;;4935467;29;20036;-86
2023/08/28 07:20:31;;;;;;;4.95;2.25;;;17.20;99.90;;;;;;4935974;29;20128;-87
2023/08/28 07:22:58;;;;;;;2.92;2.67;;;17.20;99.90;;;;;;4907428;28;1105518;-85
2023/08/28 07:25:24;;;;;;;2.80;2.38;;;17.20;99.90;;;;;;4966960;28;20033;-84
2023/08/28 07:27:50;;;;;;;4.35;2.40;;;17.30;99.90;;;;;;4955863;29;20118;-83
2023/08/28 07:30:16;;;;;;;3.50;2.20;;;17.30;99.90;;;;;;4959880;28;20023;-82
2023/08/28 07:32:42;;;;;;;3.30;2.17;;;17.30;99.90;;;;;;4961627;28;20360;-82
2023/08/28 07:35:08;;;;;;;2.50;2.33;;;17.50;99.90;;;;;;4966489;28;20038;-82
2023/08/28 07:37:34;;;;;;;3.13;2.05;;;17.30;99.90;;;;;;4965764;28;20483;-83
2023/08/28 07:40:00;;;;;;;3.92;2.55;;;17.20;99.90;;;;;;4954274;29;20035;-84
2023/08/28 07:42:25;;;;;;;3.75;2.78;;;17.30;99.90;;;;;;4958619;28;20034;-83
2023/08/28 07:44:51;;;;;;;3.92;2.50;;;17.30;99.90;;;;;;4955435;29;20050;-82
2023/08/28 07:47:17;;;;;;;4.03;2.72;;;17.30;99.90;;;;;;4961384;28;20054;-83
2023/08/28 07:49:43;;;;;;;2.72;2.47;;;17.30;99.90;;;;;;4976642;28;20038;-90
2023/08/28 07:52:09;;;;;;;3.28;2.40;;;17.30;99.90;;;;;;4978455;28;20027;-92
2023/08/28 07:54:35;;;;;;;5.25;2.33;;;17.30;99.90;;;;;;4975883;28;20031;-91
2023/08/28 07:57:01;;;;;;;3.85;2.45;;;17.30;99.90;;;;;;4970258;28;20027;-89
2023/08/28 07:59:26;;;;;;;2.13;1.90;;;17.30;99.90;;;;;;4972807;28;20086;-89
2023/08/28 08:01:52;;;;;;;2.55;2.05;;;17.30;99.90;;;;;;4972087;28;20026;-89
2023/08/28 08:04:17;;;;;;;2.38;2.17;;;17.30;99.90;;;;;;4971197;28;20023;-87
2023/08/28 08:06:43;;;;;;;3.05;1.58;;;17.30;99.90;;;;;;4973026;28;20171;-90
2023/08/28 08:09:09;;;;;;;2.25;1.58;;;17.40;99.90;;;;;;4968776;28;20054;-91
2023/08/28 08:11:35;;;;;;;1.85;1.55;;;17.30;99.90;;;;;;4959826;28;20033;-90
2023/08/28 08:14:00;;;;;;;4.57;1.63;;;17.40;99.90;;;;;;4965071;28;20039;-90
2023/08/28 08:16:26;;;;;;;2.47;1.73;;;17.30;99.90;;;;;;4971815;28;20034;-87
2023/08/28 08:18:52;;;;;;;5.00;1.40;;;17.40;99.90;;;;;;4974847;28;20388;-85
2023/08/28 08:21:17;;;;;;;1.67;1.50;;;17.40;99.90;;;;;;4973911;28;20042;-87
2023/08/28 08:23:43;;;;;;;2.05;1.50;;;17.40;99.90;;;;;;4956368;28;20108;-88
2023/08/28 08:26:09;;;;;;;1.33;1.20;;;17.40;99.90;;;;;;4936458;29;20024;-89
2023/08/28 08:28:38;;;;;;;2.42;1.65;;;17.40;99.90;;;;;;4939668;29;20034;-88
2023/08/28 08:31:03;;;;;;;1.52;1.20;;;17.50;99.90;;;;;;4936628;29;20031;-87
2023/08/28 08:33:29;;;;;;;0.98;0.98;;;17.40;99.90;;;;;;4947657;29;20376;-88
2023/08/28 08:35:55;;;;;;;1.52;1.27;;;17.70;99.90;;;;;;4952895;29;20019;-89
2023/08/28 08:38:21;;;;;;;1.42;1.33;;;17.50;99.90;;;;;;4952425;29;20035;-89
2023/08/28 08:40:51;;;;;;;3.45;1.27;;;17.50;99.90;;;;;;4946409;29;20501;-89
2023/08/28 08:43:17;;;;;;;1.92;1.27;;;17.50;99.90;;;;;;4948144;29;20031;-89
2023/08/28 08:45:46;;;;;;;1.00;0.88;;;17.70;99.90;;;;;;4938817;29;20098;-90
2023/08/28 08:48:16;;;;;;;2.15;1.30;;;17.60;99.90;;;;;;4940603;29;20032;-89
2023/08/28 08:50:45;;;;;;;0.82;0.80;;;17.60;99.90;;;;;;4936205;29;20024;-89
2023/08/28 08:53:21;;;;;;;3.17;0.80;;;17.60;99.90;;;;;;4947198;29;20066;-89
2023/08/28 08:55:49;;;;;;;1.45;0.90;;;17.70;99.90;;;;;;4955070;29;20101;-89
2023/08/28 08:58:16;;;;;;;1.15;1.02;;;17.60;99.90;;;;;;4953699;28;20128;-89
2023/08/28 09:00:45;;;;;;;1.33;1.10;;;17.70;99.90;;;;;;4947224;29;20043;-89
2023/08/28 09:03:12;;;;;;;4.57;1.60;;;17.80;99.90;;;;;;4943247;29;20062;-89
2023/08/28 09:05:39;;;;;;;3.35;1.20;;;18.00;99.90;;;;;;4954590;29;20129;-90
2023/08/28 09:08:05;;;;;;;2.08;1.15;;;17.80;99.90;;;;;;4950976;29;20031;-89
2023/08/28 09:10:32;;;;;;;1.50;1.33;;;17.80;99.90;;;;;;4954255;29;20039;-89
2023/08/28 09:12:57;;;;;;;1.60;1.13;;;17.90;99.90;;;;;;4940731;29;20055;-88
2023/08/28 09:15:24;;;;;;;1.13;0.73;;;17.90;99.90;;;;;;4949046;29;20114;-90
2023/08/28 09:17:52;;;;;;;1.95;0.88;;;18.00;99.90;;;;;;4940401;29;21032;-88
2023/08/28 09:20:20;;;;;;;1.25;1.00;;;18.00;99.90;;;;;;4954740;29;20372;-89
2023/08/28 09:22:47;;;;;;;1.67;0.80;;;18.30;99.90;;;;;;4952921;28;20126;-89
2023/08/28 09:25:13;;;;;;;2.45;0.82;;;18.10;99.90;;;;;;4955263;28;20035;-87
2023/08/28 09:27:42;;;;;;;1.52;1.00;;;18.10;99.90;;;;;;4964370;28;20031;-86
2023/08/28 09:30:09;;;;;;;1.23;1.10;;;18.30;99.90;;;;;;4971939;28;20033;-83
2023/08/28 09:32:35;;;;;;;1.42;1.00;;;18.20;99.90;;;;;;4966296;28;20101;-82
2023/08/28 09:35:06;;;;;;;1.00;0.95;;;18.20;99.90;;;;;;4962826;28;20484;-83
2023/08/28 09:37:31;;;;;;;1.55;1.00;;;18.20;99.90;;;;;;4968009;28;20033;-83
2023/08/28 09:39:57;;;;;;;1.60;1.27;;;18.30;99.90;;;;;;4971365;28;20035;-83
2023/08/28 09:42:26;;;;;;;1.23;0.98;;;18.30;99.90;;;;;;4970184;28;20042;-82
2023/08/28 09:44:51;;;;;;;1.35;1.25;;;18.30;99.90;;;;;;4971564;28;20038;-83
2023/08/28 09:47:21;;;;;;;1.67;1.10;;;18.30;99.90;;;;;;4966655;28;20023;-82
2023/08/28 09:49:48;;;;;;;2.40;1.30;;;18.30;99.90;;;;;;4955272;28;20028;-83
2023/08/28 09:52:14;;;;;;;0.82;0.73;;;18.40;99.90;;;;;;4953108;29;20484;-82
2023/08/28 09:54:43;;;;;;;1.70;1.10;;;18.30;99.90;;;;;;4970286;28;20050;-82
2023/08/28 09:57:15;;;;;;;4.13;1.50;;;18.40;99.90;;;;;;4954021;29;20038;-83
2023/08/28 09:59:41;;;;;;;2.85;1.35;;;18.40;99.90;;;;;;4968147;28;20034;-83
2023/08/28 10:02:08;;;;;;;1.40;1.30;;;18.40;99.90;;;;;;4972941;28;20113;-83
2023/08/28 10:04:35;;;;;;;2.45;1.30;;;18.40;99.90;;;;;;4971425;28;20097;-81
2023/08/28 10:07:04;;;;;;;3.08;1.63;;;18.40;99.90;;;;;;4972021;28;20042;-81
2023/08/28 10:09:32;;;;;;;1.50;1.00;;;18.40;99.90;;;;;;4968818;28;20034;-81
2023/08/28 10:12:00;;;;;;;1.70;0.80;;;18.60;99.90;;;;;;4959991;28;20039;-82
2023/08/28 10:14:28;;;;;;;1.23;1.13;;;18.50;99.90;;;;;;4975365;28;20418;-82
2023/08/28 10:17:00;;;;;;;0.98;0.88;;;18.50;99.90;;;;;;4976527;28;20395;-81
2023/08/28 10:19:38;;;;;;;11.73;1.40;;;18.60;99.90;;;;;;4974725;28;20112;-81
2023/08/28 10:22:07;;;;;;;1.25;0.50;;;18.60;99.90;;;;;;4976601;28;20050;-81
2023/08/28 10:24:35;;;;;;;1.05;0.95;;;18.60;99.90;;;;;;4972046;28;20099;-80
2023/08/28 10:27:02;;;;;;;1.25;0.90;;;18.60;99.90;;;;;;4981575;28;20483;-81
2023/08/28 10:29:30;;;;;;;1.58;0.93;;;18.60;99.90;;;;;;4976299;28;20157;-82
2023/08/28 10:31:56;;;;;;;1.77;0.90;;;18.70;99.90;;;;;;4972593;28;20033;-83
2023/08/28 10:34:24;;;;;;;2.28;1.63;;;18.70;99.90;;;;;;4957969;28;20039;-84
2023/08/28 10:36:51;;;;;;;1.20;1.10;;;18.70;99.90;;;;;;4969732;28;20863;-83
2023/08/28 10:39:17;;;;;;;2.90;1.30;;;18.70;99.90;;;;;;4969539;28;20043;-83
2023/08/28 10:41:46;;;;;;;1.40;1.17;;;18.80;99.90;;;;;;4973357;28;20030;-82
2023/08/28 10:44:12;;;;;;;2.55;1.13;;;18.80;99.90;;;;;;4969727;28;20038;-82
2023/08/28 10:46:38;;;;;;;2.22;1.42;;;18.80;99.90;;;;;;4962819;28;20031;-82
2023/08/28 10:49:05;;;;;;;9.40;1.27;;;18.80;99.90;;;;;;4961300;28;20074;-82
2023/08/28 10:51:35;;;;;;;1.48;0.90;;;18.90;99.90;;;;;;4964552;28;20031;-81
2023/08/28 10:54:03;;;;;;;1.80;1.20;;;18.90;99.90;;;;;;4960593;28;20138;-82
2023/08/28 10:56:37;;;;;;;1.67;1.05;;;19.00;99.90;;;;;;4967527;28;20035;-82
2023/08/28 10:59:25;;;;;;;1.92;1.20;;;18.90;99.90;;;;;;4966348;28;20039;-81
2023/08/28 11:01:58;;;;;;;2.40;1.27;;;19.10;99.90;;;;;;4967599;28;20410;-80
2023/08/28 11:04:32;;;;;;;1.98;1.20;;;19.10;99.90;;;;;;4966689;28;20379;-83
2023/08/28 11:06:57;;;;;;;3.08;1.13;;;19.10;99.90;;;;;;4961423;28;20030;-83
2023/08/28 11:09:29;;;;;;;5.10;1.38;;;19.20;99.90;;;;;;4967412;28;20370;-84
2023/08/28 11:11:57;;;;;;;2.88;1.30;;;19.20;99.90;;;;;;4969246;28;20023;-84
2023/08/28 11:14:23;;;;;;;1.75;1.30;;;19.20;99.90;;;;;;4970728;28;20027;-83
2023/08/28 11:17:03;;;;;;;2.00;1.30;;;19.20;99.90;;;;;;4964314;28;20026;-83
2023/08/28 11:19:29;;;;;;;3.23;1.87;;;19.30;99.90;;;;;;4970801;28;20050;-83
2023/08/28 11:21:58;;;;;;;3.70;1.42;;;19.30;99.90;;;;;;4972314;28;20031;-82
2023/08/28 11:24:24;;;;;;;2.20;1.75;;;19.30;99.90;;;;;;4966614;28;20055;-81
2023/08/28 11:26:50;;;;;;;1.60;1.50;;;19.50;99.90;;;;;;4967391;28;20826;-81
2023/08/28 11:29:26;;;;;;;3.38;1.55;;;19.30;99.90;;;;;;4959707;28;20154;-82
2023/08/28 11:31:51;;;;;;;2.75;1.67;;;19.30;99.90;;;;;;4962585;28;20112;-84
2023/08/28 11:34:17;;;;;;;3.00;1.98;;;19.30;99.90;;;;;;4967671;28;20030;-84
2023/08/28 11:36:43;;;;;;;2.45;1.30;;;19.30;99.90;;;;;;4967908;28;20097;-82
2023/08/28 11:39:29;;;;;;;2.25;1.63;;;19.40;99.90;;;;;;4962219;28;20031;-83
2023/08/28 11:41:54;;;;;;;1.50;1.40;;;20.10;99.90;;;;;;4965964;28;20039;-83
2023/08/28 11:44:20;;;;;;;4.07;1.70;;;19.50;99.90;;;;;;4958220;28;20148;-83
2023/08/28 11:46:46;;;;;;;2.63;1.63;;;19.50;99.90;;;;;;4968090;28;20069;-83
2023/08/28 11:49:13;;;;;;;4.20;2.30;;;19.90;99.90;;;;;;4963573;28;20030;-83
2023/08/28 11:51:38;;;;;;;3.28;1.48;;;20.00;99.90;;;;;;4971397;28;20027;-82
2023/08/28 11:54:04;;;;;;;2.60;1.70;;;19.40;99.90;;;;;;4967509;28;20035;-83
2023/08/28 11:56:33;;;;;;;1.45;1.33;;;19.40;99.90;;;;;;4971421;28;20037;-83
2023/08/28 11:58:59;;;;;;;5.23;1.53;;;19.40;99.90;;;;;;4959197;28;20118;-83
2023/08/28 12:01:28;;;;;;;2.95;1.33;;;19.40;99.90;;;;;;4967024;28;20114;-82
2023/08/28 12:04:01;;;;;;;4.55;1.35;;;19.40;99.90;;;;;;4957066;28;20027;-82
2023/08/28 12:06:29;;;;;;;2.47;1.30;;;19.50;99.90;;;;;;4968479;28;20473;-82
2023/08/28 12:08:55;;;;;;;4.07;0.93;;;19.30;99.90;;;;;;4970802;28;20035;-82
2023/08/28 12:11:21;;;;;;;1.63;1.13;;;19.40;99.90;;;;;;4967633;28;20038;-82
2023/08/28 12:13:46;;;;;;;3.97;0.90;;;19.30;99.90;;;;;;4961661;28;20027;-84
2023/08/28 12:16:17;;;;;;;1.13;0.80;;;19.30;99.90;;;;;;4958223;28;20148;-82
2023/08/28 12:18:50;;;;;;;;;;;19.60;99.90;;;;;;4958600;28;20402;-83
2023/08/28 12:21:32;;;;;;;3.97;1.55;;;19.30;99.90;;;;;;4961797;28;19910;-83
2023/08/28 12:23:58;;;;;;;3.88;1.10;;;19.40;99.90;;;;;;4961793;28;20507;-82
2023/08/28 12:26:24;;;;;;;1.95;0.80;;;19.50;99.90;;;;;;4955078;29;20038;-80
2023/08/28 12:28:51;;;;;;;0.93;0.80;;;19.50;99.90;;;;;;4955387;28;20118;-82
2023/08/28 12:31:30;;;;;;;2.83;1.42;;;19.50;99.90;;;;;;4972076;28;20027;-83
2023/08/28 12:33:56;;;;;;;1.75;0.80;;;19.60;99.90;;;;;;4964205;28;20386;-81
2023/08/28 12:36:38;;;;;;;2.53;1.00;;;19.60;99.90;;;;;;4971747;28;20027;-82
2023/08/28 12:39:05;;;;;;;1.63;0.70;;;19.60;99.90;;;;;;4966117;28;20113;-83
2023/08/28 12:41:35;;;;;;;0.95;0.80;;;19.60;99.90;;;;;;4965847;28;20041;-82
2023/08/28 12:44:02;;;;;;;2.53;0.70;;;20.10;99.90;;;;;;4973530;28;20058;-83
2023/08/28 12:46:28;;;;;;;0.80;0.80;;;19.70;99.90;;;;;;4973855;28;20382;-83